createdAt,value
2019-01-28T00:00:49.630Z,3.9
2019-01-28T00:02:49.632Z,3.9
2019-01-28T00:04:50.054Z,4.0
2019-01-28T00:06:50.323Z,4.2
2019-01-28T00:08:50.373Z,4.2
2019-01-28T00:10:50.392Z,4.0
2019-01-28T00:12:50.434Z,4.0
2019-01-28T00:14:49.525Z,3.8
2019-01-28T00:16:49.783Z,3.6
2019-01-28T00:18:49.841Z,4.0
2019-01-28T00:20:49.799Z,3.9
2019-01-28T00:22:49.790Z,3.9
2019-01-28T00:24:49.783Z,4.2
2019-01-28T00:26:50.015Z,4.1
2019-01-28T00:28:50.020Z,4.1
2019-01-28T00:30:50.007Z,3.1
2019-01-28T00:32:50.072Z,3.1
2019-01-28T00:34:50.241Z,3.1
2019-01-28T00:36:49.533Z,3.1
2019-01-28T00:38:49.739Z,2.9
2019-01-28T00:40:49.796Z,3.0
2019-01-28T00:42:49.842Z,3.0
2019-01-28T00:44:49.838Z,3.1
2019-01-28T00:46:50.007Z,3.1
2019-01-28T00:48:50.018Z,3.2
2019-01-28T00:50:50.032Z,3.2
2019-01-28T00:52:50.073Z,2.9
2019-01-28T00:54:50.066Z,3.1
2019-01-28T00:56:50.324Z,3.2
2019-01-28T00:58:50.385Z,3.0
2019-01-28T01:00:49.561Z,3.0
2019-01-28T01:02:49.740Z,3.1
2019-01-28T01:04:50.211Z,3.1
2019-01-28T01:06:49.466Z,3.3
2019-01-28T01:08:49.470Z,3.3
2019-01-28T01:10:49.479Z,3.5
2019-01-28T01:12:49.678Z,3.7
2019-01-28T01:14:49.725Z,3.6
2019-01-28T01:16:49.951Z,3.6
2019-01-28T01:18:49.987Z,4.0
2019-01-28T01:20:50.052Z,4.7
2019-01-28T01:22:50.111Z,4.1
2019-01-28T01:24:50.109Z,4.5
2019-01-28T01:26:49.510Z,4.4
2019-01-28T01:28:49.505Z,4.4
2019-01-28T01:30:49.559Z,4.2
2019-01-28T01:32:49.612Z,4.0
2019-01-28T01:34:50.110Z,4.1
2019-01-28T01:36:50.306Z,4.4
2019-01-28T01:38:50.288Z,4.4
2019-01-28T01:40:50.296Z,4.2
2019-01-28T01:42:50.301Z,4.2
2019-01-28T01:44:50.383Z,4.1
2019-01-28T01:46:49.668Z,4.7
2019-01-28T01:48:49.703Z,4.7
2019-01-28T01:50:49.677Z,4.2
2019-01-28T01:52:49.722Z,4.3
2019-01-28T01:54:49.777Z,4.3
2019-01-28T01:56:49.958Z,4.3
2019-01-28T01:58:49.955Z,4.3
2019-01-28T02:00:49.890Z,3.8
2019-01-28T02:02:49.913Z,3.8
2019-01-28T02:04:50.104Z,3.8
2019-01-28T02:06:50.346Z,4.2
2019-01-28T02:08:50.415Z,4.2
2019-01-28T02:10:50.395Z,4.0
2019-01-28T02:12:50.434Z,4.7
2019-01-28T02:14:49.634Z,4.5
2019-01-28T02:16:49.909Z,4.5
2019-01-28T02:18:49.987Z,5.0
2019-01-28T02:20:50.167Z,5.0
2019-01-28T02:22:49.551Z,5.0
2019-01-28T02:24:49.638Z,4.8
2019-01-28T02:26:50.023Z,4.8
2019-01-28T02:28:50.144Z,5.0
2019-01-28T02:30:50.276Z,4.9
2019-01-28T02:32:49.448Z,4.9
2019-01-28T02:34:49.892Z,4.9
2019-01-28T02:36:50.081Z,4.9
2019-01-28T02:38:50.221Z,5.1
2019-01-28T02:40:50.264Z,5.2
2019-01-28T02:42:50.448Z,5.2
2019-01-28T02:44:49.522Z,5.8
2019-01-28T02:46:49.723Z,5.8
2019-01-28T02:48:49.773Z,5.6
2019-01-28T02:50:49.809Z,5.6
2019-01-28T02:52:49.775Z,5.1
2019-01-28T02:54:49.898Z,5.3
2019-01-28T02:56:50.121Z,5.3
2019-01-28T02:58:50.188Z,5.3
2019-01-28T03:00:50.176Z,5.1
2019-01-28T03:02:50.236Z,5.2
2019-01-28T03:04:49.469Z,5.2
2019-01-28T03:06:49.746Z,5.9
2019-01-28T03:08:50.101Z,5.4
2019-01-28T03:10:50.185Z,6.1
2019-01-28T03:12:50.259Z,5.1
2019-01-28T03:14:50.216Z,5.1
2019-01-28T03:16:49.491Z,4.6
2019-01-28T03:18:49.534Z,5.6
2019-01-28T03:20:49.616Z,5.4
2019-01-28T03:22:49.615Z,4.8
2019-01-28T03:24:49.724Z,4.8
2019-01-28T03:26:49.918Z,5.8
2019-01-28T03:28:49.911Z,5.8
2019-01-28T03:30:50.089Z,4.8
2019-01-28T03:32:50.132Z,4.8
2019-01-28T03:34:49.693Z,7.9
2019-01-28T03:36:49.858Z,6.0
2019-01-28T03:38:49.911Z,4.3
2019-01-28T03:40:49.898Z,4.3
2019-01-28T03:42:49.885Z,5.8
2019-01-28T03:44:49.935Z,5.8
2019-01-28T03:46:50.165Z,4.9
2019-01-28T03:48:50.157Z,6.7
2019-01-28T03:50:50.178Z,4.7
2019-01-28T03:52:50.186Z,4.7
2019-01-28T03:54:50.200Z,4.5
2019-01-28T03:56:50.366Z,5.4
2019-01-28T03:58:50.342Z,5.2
2019-01-28T04:00:50.413Z,5.2
2019-01-28T04:02:50.354Z,5.1
2019-01-28T04:04:49.774Z,5.4
2019-01-28T04:06:50.061Z,5.2
2019-01-28T04:08:50.043Z,3.6
2019-01-28T04:10:50.111Z,5.6
2019-01-28T04:12:50.144Z,5.6
2019-01-28T04:14:50.087Z,6.6
2019-01-28T04:16:50.383Z,4.9
2019-01-28T04:18:50.306Z,4.9
2019-01-28T04:20:50.359Z,5.2
2019-01-28T04:22:50.343Z,5.2
2019-01-28T04:24:50.373Z,5.5
2019-01-28T04:26:49.567Z,3.9
2019-01-28T04:28:49.625Z,3.9
2019-01-28T04:30:49.726Z,5.3
2019-01-28T04:32:49.664Z,5.3
2019-01-28T04:34:49.940Z,4.9
2019-01-28T04:36:50.191Z,3.7
2019-01-28T04:38:50.160Z,6.5
2019-01-28T04:40:50.277Z,7.1
2019-01-28T04:42:50.328Z,7.1
2019-01-28T04:44:50.415Z,6.4
2019-01-28T04:46:49.622Z,4.5
2019-01-28T04:48:49.748Z,4.3
2019-01-28T04:50:49.881Z,4.3
2019-01-28T04:52:49.927Z,6.5
2019-01-28T04:54:49.998Z,5.8
2019-01-28T04:56:50.203Z,4.0
2019-01-28T04:58:50.217Z,4.2
2019-01-28T05:00:50.256Z,4.2
2019-01-28T05:02:50.248Z,6.3
2019-01-28T05:04:49.561Z,4.3
2019-01-28T05:06:49.718Z,4.9
2019-01-28T05:08:49.790Z,4.7
2019-01-28T05:10:49.923Z,4.7
2019-01-28T05:12:50.060Z,5.3
2019-01-28T05:14:50.124Z,7.3
2019-01-28T05:16:50.379Z,7.3
2019-01-28T05:18:49.524Z,4.3
2019-01-28T05:20:49.604Z,4.3
2019-01-28T05:22:49.672Z,4.4
2019-01-28T05:24:49.764Z,7.0
2019-01-28T05:26:49.595Z,5.9
2019-01-28T05:28:49.641Z,5.9
2019-01-28T05:30:49.647Z,4.8
2019-01-28T05:32:49.670Z,5.2
2019-01-28T05:34:50.104Z,5.2
2019-01-28T05:36:50.419Z,6.2
2019-01-28T05:38:50.413Z,6.2
2019-01-28T05:40:50.453Z,4.4
2019-01-28T05:42:49.455Z,4.6
2019-01-28T05:44:50.156Z,4.3
2019-01-28T05:46:49.576Z,4.4
2019-01-28T05:48:49.653Z,4.4
2019-01-28T05:50:49.674Z,4.1
2019-01-28T05:52:49.784Z,3.6
2019-01-28T05:54:49.731Z,5.5
2019-01-28T05:56:49.948Z,5.7
2019-01-28T05:58:49.964Z,5.7
2019-01-28T06:00:49.918Z,5.5
2019-01-28T06:02:50.053Z,3.8
2019-01-28T06:04:49.474Z,3.8
2019-01-28T06:06:49.683Z,4.4
2019-01-28T06:08:49.613Z,4.4
2019-01-28T06:10:49.589Z,4.9
2019-01-28T06:12:49.669Z,4.3
2019-01-28T06:14:49.701Z,4.3
2019-01-28T06:16:49.869Z,5.1
2019-01-28T06:18:49.831Z,4.4
2019-01-28T06:20:49.843Z,4.5
2019-01-28T06:22:49.814Z,4.1
2019-01-28T06:24:49.774Z,3.8
2019-01-28T06:26:49.972Z,3.8
2019-01-28T06:28:49.976Z,4.1
2019-01-28T06:30:49.954Z,3.0
2019-01-28T06:32:49.906Z,3.1
2019-01-28T06:34:50.218Z,2.8
2019-01-28T06:36:50.083Z,2.8
2019-01-28T06:38:50.122Z,3.7
2019-01-28T06:40:50.143Z,3.3
2019-01-28T06:42:50.204Z,3.3
2019-01-28T06:44:50.206Z,3.5
2019-01-28T06:46:50.418Z,3.5
2019-01-28T06:48:50.396Z,5.2
2019-01-28T06:50:49.456Z,5.5
2019-01-28T06:52:49.552Z,4.0
2019-01-28T06:54:49.596Z,5.0
2019-01-28T06:56:49.844Z,5.0
2019-01-28T06:58:49.865Z,4.2
2019-01-28T07:00:49.984Z,4.2
2019-01-28T07:02:50.001Z,2.6
2019-01-28T07:04:50.211Z,4.9
2019-01-28T07:06:49.467Z,4.1
2019-01-28T07:08:49.554Z,4.1
2019-01-28T07:10:49.605Z,2.6
2019-01-28T07:12:49.629Z,3.1
2019-01-28T07:14:49.737Z,3.1
2019-01-28T07:16:49.927Z,2.8
2019-01-28T07:18:49.965Z,4.3
2019-01-28T07:20:49.994Z,3.7
2019-01-28T07:22:49.997Z,3.7
2019-01-28T07:24:50.001Z,2.8
2019-01-28T07:26:50.196Z,3.0
2019-01-28T07:28:50.153Z,3.3
2019-01-28T07:30:50.139Z,3.1
2019-01-28T07:32:50.231Z,3.4
2019-01-28T07:34:49.463Z,3.4
2019-01-28T07:36:49.640Z,2.8
2019-01-28T07:38:49.650Z,2.8
2019-01-28T07:40:49.747Z,2.6
2019-01-28T07:42:49.769Z,2.4
2019-01-28T07:44:49.732Z,2.4
2019-01-28T07:46:49.888Z,2.4
2019-01-28T07:48:49.865Z,2.6
2019-01-28T07:50:49.824Z,3.2
2019-01-28T07:52:49.867Z,3.8
2019-01-28T07:54:49.873Z,3.8
2019-01-28T07:56:50.154Z,2.3
2019-01-28T07:58:50.172Z,2.3
2019-01-28T08:00:50.200Z,2.3
2019-01-28T08:02:50.282Z,2.3
2019-01-28T08:04:49.793Z,2.3
2019-01-28T08:06:59.113Z,2.2
2019-01-28T08:08:49.764Z,2.5
2019-01-28T08:10:49.729Z,2.5
2019-01-28T08:12:49.929Z,1.9
2019-01-28T08:14:50.012Z,1.9
2019-01-28T08:16:50.256Z,2.7
2019-01-28T08:18:49.444Z,2.7
2019-01-28T08:20:49.524Z,2.3
2019-01-28T08:22:49.658Z,2.3
2019-01-28T08:24:49.761Z,2.2
2019-01-28T08:26:50.027Z,2.0
2019-01-28T08:28:50.074Z,2.3
2019-01-28T08:30:50.223Z,2.2
2019-01-28T08:32:50.288Z,2.2
2019-01-28T08:34:49.648Z,2.1
2019-01-28T08:36:50.004Z,2.1
2019-01-28T08:38:50.052Z,2.0
2019-01-28T08:40:50.059Z,1.9
2019-01-28T08:42:50.184Z,1.9
2019-01-28T08:44:50.111Z,2.1
2019-01-28T08:46:49.501Z,2.0
2019-01-28T08:48:49.455Z,1.9
2019-01-28T08:50:49.575Z,1.9
2019-01-28T08:52:49.516Z,1.9
2019-01-28T08:54:49.582Z,1.8
2019-01-28T08:56:49.754Z,2.5
2019-01-28T08:58:49.730Z,1.9
2019-01-28T09:00:49.861Z,1.9
2019-01-28T09:02:49.842Z,1.8
2019-01-28T09:04:50.060Z,1.6
2019-01-28T09:06:50.248Z,1.7
2019-01-28T09:08:50.167Z,1.7
2019-01-28T09:10:50.236Z,1.8
2019-01-28T09:12:50.254Z,1.6
2019-01-28T09:14:50.307Z,1.8
2019-01-28T09:16:49.456Z,1.8
2019-01-28T09:18:49.600Z,1.7
2019-01-28T09:20:49.673Z,1.7
2019-01-28T09:22:49.877Z,1.7
2019-01-28T09:24:50.089Z,2.2
2019-01-28T09:26:50.347Z,1.8
2019-01-28T09:28:50.403Z,1.5
2019-01-28T09:30:50.309Z,1.5
2019-01-28T09:32:50.291Z,2.1
2019-01-28T09:34:49.892Z,1.7
2019-01-28T09:36:50.013Z,1.5
2019-01-28T09:38:49.962Z,1.5
2019-01-28T09:40:50.020Z,1.6
2019-01-28T09:42:49.966Z,1.5
2019-01-28T09:44:50.007Z,1.7
2019-01-28T09:46:50.191Z,1.6
2019-01-28T09:48:50.254Z,1.6
2019-01-28T09:50:50.313Z,1.5
2019-01-28T09:52:50.266Z,1.5
2019-01-28T09:54:50.413Z,1.7
2019-01-28T09:56:49.802Z,1.7
2019-01-28T09:58:49.781Z,2.3
2019-01-28T10:00:49.825Z,2.0
2019-01-28T10:02:49.823Z,1.7
2019-01-28T10:04:50.185Z,1.8
2019-01-28T10:06:49.486Z,1.4
2019-01-28T10:08:50.420Z,1.4
2019-01-28T10:10:49.437Z,2.2
2019-01-28T10:12:49.707Z,1.4
2019-01-28T10:14:49.752Z,1.4
2019-01-28T10:16:49.918Z,1.4
2019-01-28T10:18:50.173Z,1.4
2019-01-28T10:20:50.345Z,1.4
2019-01-28T10:22:49.555Z,1.4
2019-01-28T10:24:49.669Z,1.3
2019-01-28T10:26:49.873Z,1.3
2019-01-28T10:28:49.905Z,2.2
2019-01-28T10:30:49.880Z,1.5
2019-01-28T10:32:49.860Z,1.4
2019-01-28T10:34:51.666Z,1.2
2019-01-28T10:36:50.033Z,1.2
2019-01-28T10:38:50.178Z,1.3
2019-01-28T10:40:50.221Z,2.0
2019-01-28T10:42:50.213Z,1.4
2019-01-28T10:44:50.313Z,1.3
2019-01-28T10:46:49.492Z,1.3
2019-01-28T10:48:49.797Z,1.3
2019-01-28T10:50:49.923Z,1.5
2019-01-28T10:52:49.933Z,1.5
2019-01-28T10:54:49.963Z,1.6
2019-01-28T10:56:50.258Z,1.3
2019-01-28T10:58:50.242Z,1.4
2019-01-28T11:00:50.169Z,1.2
2019-01-28T11:02:50.196Z,1.3
2019-01-28T11:04:49.556Z,1.3
2019-01-28T11:06:49.881Z,1.3
2019-01-28T11:08:50.006Z,1.3
2019-01-28T11:10:49.977Z,1.8
2019-01-28T11:12:50.202Z,1.5
2019-01-28T11:14:49.580Z,1.4
2019-01-28T11:16:50.113Z,1.4
2019-01-28T11:18:57.178Z,2.2
2019-01-28T11:20:50.279Z,2.2
2019-01-28T11:22:50.007Z,1.2
2019-01-28T11:24:49.534Z,1.2
2019-01-28T11:26:50.194Z,1.3
2019-01-28T11:28:49.753Z,1.3
2019-01-28T11:30:49.991Z,1.5
2019-01-28T11:32:49.457Z,1.5
2019-01-28T11:34:50.074Z,1.2
2019-01-28T11:36:49.861Z,1.4
2019-01-28T11:38:50.396Z,1.1
2019-01-28T11:40:50.097Z,1.1
2019-01-28T11:42:50.356Z,1.4
2019-01-28T11:44:49.576Z,1.4
2019-01-28T11:46:49.912Z,1.5
2019-01-28T11:48:50.011Z,1.1
2019-01-28T11:50:55.801Z,1.1
2019-01-28T11:52:49.605Z,1.5
2019-01-28T11:54:49.603Z,1.5
2019-01-28T11:56:50.044Z,1.3
2019-01-28T11:58:50.135Z,1.3
2019-01-28T12:00:50.172Z,1.3
2019-01-28T12:02:50.276Z,1.2
2019-01-28T12:04:49.603Z,1.2
2019-01-28T12:06:49.780Z,1.3
2019-01-28T12:08:49.742Z,1.3
2019-01-28T12:10:49.727Z,1.4
2019-01-28T12:12:49.896Z,2.5
2019-01-28T12:14:49.891Z,2.5
2019-01-28T12:16:50.007Z,1.2
2019-01-28T12:18:49.985Z,1.9
2019-01-28T12:20:53.576Z,1.2
2019-01-28T12:22:49.935Z,1.2
2019-01-28T12:24:49.843Z,1.4
2019-01-28T12:26:49.998Z,1.1
2019-01-28T12:28:50.038Z,1.9
2019-01-28T12:30:50.046Z,2.2
2019-01-28T12:32:50.032Z,2.2
2019-01-28T12:34:50.417Z,1.2
2019-01-28T12:36:49.773Z,1.0
2019-01-28T12:38:50.210Z,1.2
2019-01-28T12:40:50.356Z,1.4
2019-01-28T12:42:50.333Z,1.4
2019-01-28T12:44:49.468Z,1.2
2019-01-28T12:46:49.901Z,1.4
2019-01-28T12:48:49.925Z,1.3
2019-01-28T12:50:49.927Z,1.3
2019-01-28T12:52:49.934Z,1.7
2019-01-28T12:54:49.901Z,1.4
2019-01-28T12:56:50.337Z,1.8
2019-01-28T12:58:50.421Z,1.3
2019-01-28T13:00:49.481Z,1.3
2019-01-28T13:02:49.468Z,2.3
2019-01-28T13:04:49.745Z,1.3
2019-01-28T13:06:50.000Z,1.3
2019-01-28T13:08:49.968Z,1.2
2019-01-28T13:10:50.064Z,1.2
2019-01-28T13:12:50.077Z,1.1
2019-01-28T13:14:50.021Z,1.5
2019-01-28T13:16:50.266Z,1.5
2019-01-28T13:18:50.289Z,1.2
2019-01-28T13:20:50.288Z,1.2
2019-01-28T13:22:50.295Z,1.2
2019-01-28T13:24:50.354Z,1.4
2019-01-28T13:26:49.666Z,1.4
2019-01-28T13:28:49.666Z,1.3
2019-01-28T13:30:49.627Z,1.3
2019-01-28T13:32:49.637Z,1.6
2019-01-28T13:34:49.995Z,1.5
2019-01-28T13:36:50.176Z,1.4
2019-01-28T13:38:50.252Z,1.4
2019-01-28T13:40:50.286Z,1.2
2019-01-28T13:42:50.275Z,1.4
2019-01-28T13:44:50.304Z,1.2
2019-01-28T13:46:49.520Z,1.2
2019-01-28T13:48:49.610Z,1.2
2019-01-28T13:50:49.612Z,2.6
2019-01-28T13:52:49.640Z,1.4
2019-01-28T13:54:49.773Z,1.5
2019-01-28T13:56:49.973Z,1.4
2019-01-28T13:58:51.565Z,1.4
2019-01-28T14:00:49.685Z,1.5
2019-01-28T14:02:49.644Z,1.3
2019-01-28T14:04:50.159Z,1.3
2019-01-28T14:06:50.358Z,1.3
2019-01-28T14:08:50.418Z,1.3
2019-01-28T14:10:49.460Z,1.7
2019-01-28T14:12:49.468Z,1.6
2019-01-28T14:14:49.578Z,1.6
2019-01-28T14:16:49.787Z,1.3
2019-01-28T14:18:49.855Z,1.6
2019-01-28T14:20:53.455Z,1.6
2019-01-28T14:22:49.607Z,2.0
2019-01-28T14:24:49.717Z,2.0
2019-01-28T14:26:49.866Z,1.7
2019-01-28T14:28:49.833Z,2.1
2019-01-28T14:30:49.803Z,1.8
2019-01-28T14:32:49.805Z,1.8
2019-01-28T14:34:50.196Z,1.8
2019-01-28T14:36:50.400Z,2.0
2019-01-28T14:38:50.363Z,1.7
2019-01-28T14:40:50.457Z,2.0
2019-01-28T14:42:50.405Z,2.1
2019-01-28T14:44:49.474Z,1.8
2019-01-28T14:46:49.678Z,1.8
2019-01-28T14:48:49.699Z,2.0
2019-01-28T14:50:49.671Z,2.1
2019-01-28T14:52:50.075Z,2.2
2019-01-28T14:54:50.097Z,2.7
2019-01-28T14:56:52.108Z,2.7
2019-01-28T14:58:50.325Z,2.0
2019-01-28T15:00:50.272Z,2.0
2019-01-28T15:02:50.289Z,2.0
2019-01-28T15:04:49.732Z,2.6
2019-01-28T15:06:49.933Z,2.6
2019-01-28T15:08:49.993Z,2.4
2019-01-28T15:10:50.166Z,3.4
2019-01-28T15:12:50.140Z,2.6
2019-01-28T15:14:50.198Z,2.6
2019-01-28T15:16:49.582Z,2.1
2019-01-28T15:18:49.616Z,2.4
2019-01-28T15:20:49.623Z,2.8
2019-01-28T15:22:49.632Z,3.0
2019-01-28T15:24:49.749Z,2.7
2019-01-28T15:26:49.967Z,2.7
2019-01-28T15:28:50.173Z,3.9
2019-01-28T15:30:50.240Z,3.0
2019-01-28T15:32:50.372Z,2.5
2019-01-28T15:34:50.138Z,2.5
2019-01-28T15:36:50.403Z,3.3
2019-01-28T15:38:50.425Z,3.5
2019-01-28T15:40:49.541Z,3.4
2019-01-28T15:42:49.559Z,3.4
2019-01-28T15:44:49.619Z,3.0
2019-01-28T15:46:49.765Z,2.9
2019-01-28T15:48:49.795Z,3.9
2019-01-28T15:50:49.761Z,2.6
2019-01-28T15:52:51.129Z,3.7
2019-01-28T15:54:50.379Z,3.7
2019-01-28T15:56:49.586Z,5.4
2019-01-28T15:58:49.616Z,2.7
2019-01-28T16:00:49.731Z,3.3
2019-01-28T16:02:49.738Z,3.3
2019-01-28T16:04:49.980Z,2.6
2019-01-28T16:06:50.245Z,2.7
2019-01-28T16:08:50.205Z,2.7
2019-01-28T16:10:50.279Z,3.4
2019-01-28T16:12:50.248Z,3.4
2019-01-28T16:14:50.253Z,2.7
2019-01-28T16:16:49.450Z,2.7
2019-01-28T16:18:49.507Z,2.7
2019-01-28T16:20:50.435Z,2.9
2019-01-28T16:22:49.462Z,2.9
2019-01-28T16:24:49.478Z,3.3
2019-01-28T16:26:49.736Z,2.6
2019-01-28T16:28:49.724Z,2.5
2019-01-28T16:30:49.716Z,2.6
2019-01-28T16:32:49.668Z,2.6
2019-01-28T16:34:50.039Z,2.6
2019-01-28T16:36:50.133Z,3.1
2019-01-28T16:38:50.056Z,2.7
2019-01-28T16:40:50.059Z,2.9
2019-01-28T16:42:50.082Z,2.9
2019-01-28T16:44:50.040Z,3.0
2019-01-28T16:46:50.301Z,2.9
2019-01-28T16:48:50.286Z,3.2
2019-01-28T16:50:50.379Z,3.0
2019-01-28T16:52:50.410Z,3.0
2019-01-28T16:54:50.470Z,3.8
2019-01-28T16:56:49.746Z,2.8
2019-01-28T16:58:49.754Z,2.8
2019-01-28T17:00:49.820Z,2.8
2019-01-28T17:02:49.789Z,3.0
2019-01-28T17:04:50.090Z,3.1
2019-01-28T17:06:50.230Z,3.1
2019-01-28T17:08:50.196Z,3.1
2019-01-28T17:10:50.186Z,3.0
2019-01-28T17:12:50.147Z,3.3
2019-01-28T17:14:50.209Z,3.2
2019-01-28T17:16:50.405Z,3.7
2019-01-28T17:18:49.436Z,9.1
2019-01-28T17:20:49.516Z,9.1
2019-01-28T17:22:49.586Z,3.8
2019-01-28T17:24:49.667Z,3.8
2019-01-28T17:26:49.950Z,3.8
2019-01-28T17:28:50.090Z,4.2
2019-01-28T17:30:50.140Z,4.2
2019-01-28T17:32:50.119Z,4.7
2019-01-28T17:34:49.584Z,4.7
2019-01-28T17:36:49.743Z,4.7
2019-01-28T17:38:49.699Z,4.7
2019-01-28T17:40:49.662Z,4.5
2019-01-28T17:42:49.722Z,5.2
2019-01-28T17:44:49.700Z,5.0
2019-01-28T17:46:49.872Z,4.7
2019-01-28T17:48:49.996Z,4.7
2019-01-28T17:50:49.995Z,5.0
2019-01-28T17:52:50.236Z,5.0
2019-01-28T17:54:50.219Z,5.0
2019-01-28T17:56:49.443Z,5.4
2019-01-28T17:58:49.548Z,5.4
2019-01-28T18:00:49.949Z,4.8
2019-01-28T18:02:49.974Z,4.9
2019-01-28T18:04:50.219Z,4.9
2019-01-28T18:06:50.420Z,5.6
2019-01-28T18:08:49.512Z,5.6
2019-01-28T18:10:49.501Z,5.6
2019-01-28T18:12:49.560Z,4.9
2019-01-28T18:14:49.530Z,5.4
2019-01-28T18:16:49.865Z,6.1
2019-01-28T18:18:49.828Z,6.1
2019-01-28T18:20:51.747Z,6.1
2019-01-28T18:22:50.268Z,6.1
2019-01-28T18:24:50.312Z,6.1
2019-01-28T18:26:49.745Z,5.5
2019-01-28T18:28:49.730Z,5.5
2019-01-28T18:30:49.849Z,6.0
2019-01-28T18:32:50.015Z,5.9
2019-01-28T18:34:50.204Z,5.6
2019-01-28T18:36:49.470Z,5.6
2019-01-28T18:38:49.624Z,6.1
2019-01-28T18:40:49.696Z,6.4
2019-01-28T18:42:49.681Z,6.2
2019-01-28T18:44:49.665Z,6.9
2019-01-28T18:46:49.957Z,6.9
2019-01-28T18:48:50.099Z,6.9
2019-01-28T18:50:50.070Z,7.2
2019-01-28T18:52:50.063Z,7.0
2019-01-28T18:54:50.043Z,7.0
2019-01-28T18:56:50.354Z,7.6
2019-01-28T18:58:49.480Z,7.4
2019-01-28T19:00:49.469Z,7.6
2019-01-28T19:02:49.605Z,6.9
2019-01-28T19:04:50.195Z,6.9
2019-01-28T19:06:50.395Z,7.3
2019-01-28T19:08:50.433Z,7.6
2019-01-28T19:10:49.560Z,7.1
2019-01-28T19:12:49.583Z,7.1
2019-01-28T19:14:49.700Z,8.4
2019-01-28T19:16:49.957Z,7.8
2019-01-28T19:18:49.969Z,7.8
2019-01-28T19:20:50.003Z,7.7
2019-01-28T19:22:50.086Z,7.9
2019-01-28T19:24:50.139Z,7.9
2019-01-28T19:26:50.422Z,7.9
2019-01-28T19:28:49.456Z,8.1
2019-01-28T19:30:49.543Z,8.1
2019-01-28T19:32:49.662Z,8.1
2019-01-28T19:34:50.067Z,7.1
2019-01-28T19:36:50.346Z,8.1
2019-01-28T19:38:50.389Z,7.3
2019-01-28T19:40:49.459Z,7.3
2019-01-28T19:42:49.700Z,7.8
2019-01-28T19:44:49.714Z,7.6
2019-01-28T19:46:49.917Z,8.2
2019-01-28T19:48:50.211Z,6.9
2019-01-28T19:50:50.213Z,8.2
2019-01-28T19:52:50.234Z,8.4
2019-01-28T19:54:50.209Z,8.4
2019-01-28T19:56:49.532Z,7.8
2019-01-28T19:58:49.563Z,9.1
2019-01-28T20:00:49.653Z,8.4
2019-01-28T20:02:49.696Z,8.4
2019-01-28T20:04:49.969Z,8.6
2019-01-28T20:06:50.135Z,9.2
2019-01-28T20:08:50.097Z,9.9
2019-01-28T20:10:50.116Z,9.8
2019-01-28T20:12:50.074Z,9.8
2019-01-28T20:14:50.069Z,9.8
2019-01-28T20:16:50.339Z,11.1
2019-01-28T20:18:50.436Z,9.2
2019-01-28T20:20:50.424Z,9.2
2019-01-28T20:22:49.522Z,9.7
2019-01-28T20:24:49.623Z,9.1
2019-01-28T20:26:49.831Z,9.1
2019-01-28T20:28:49.905Z,10.2
2019-01-28T20:30:49.955Z,10.2
2019-01-28T20:32:49.925Z,9.5
2019-01-28T20:34:50.366Z,9.1
2019-01-28T20:36:49.730Z,9.3
2019-01-28T20:38:49.731Z,9.3
2019-01-28T20:40:49.708Z,8.8
2019-01-28T20:42:49.682Z,8.8
2019-01-28T20:44:49.787Z,8.8
2019-01-28T20:46:49.976Z,7.9
2019-01-28T20:48:50.097Z,9.5
2019-01-28T20:50:50.240Z,9.7
2019-01-28T20:52:50.334Z,9.7
2019-01-28T20:54:49.481Z,8.0
2019-01-28T20:56:49.862Z,8.5
2019-01-28T20:58:50.038Z,8.4
2019-01-28T21:00:50.145Z,8.4
2019-01-28T21:02:50.303Z,8.6
2019-01-28T21:04:49.792Z,8.7
2019-01-28T21:06:50.069Z,8.6
2019-01-28T21:08:50.370Z,9.4
2019-01-28T21:10:49.613Z,9.4
2019-01-28T21:12:49.768Z,9.5
2019-01-28T21:14:50.068Z,9.1
2019-01-28T21:16:50.409Z,8.4
2019-01-28T21:18:49.595Z,8.7
2019-01-28T21:20:49.668Z,8.7
2019-01-28T21:22:49.711Z,8.7
2019-01-28T21:24:49.747Z,8.8
2019-01-28T21:26:49.988Z,9.0
2019-01-28T21:28:50.033Z,8.6
2019-01-28T21:30:50.067Z,8.6
2019-01-28T21:32:50.156Z,8.0
2019-01-28T21:34:49.639Z,9.1
2019-01-28T21:36:49.920Z,9.9
2019-01-28T21:38:49.648Z,9.9
2019-01-28T21:40:49.655Z,7.6
2019-01-28T21:42:49.629Z,9.6
2019-01-28T21:44:49.754Z,10.3
2019-01-28T21:46:49.948Z,8.8
2019-01-28T21:48:50.067Z,8.8
2019-01-28T21:50:50.240Z,8.7
2019-01-28T21:52:50.304Z,10.7
2019-01-28T21:54:50.327Z,9.6
2019-01-28T21:56:49.598Z,9.6
2019-01-28T21:58:49.673Z,9.4
2019-01-28T22:00:49.781Z,9.8
2019-01-28T22:02:49.764Z,9.4
2019-01-28T22:04:50.062Z,8.8
2019-01-28T22:06:50.462Z,8.5
2019-01-28T22:08:49.469Z,8.5
2019-01-28T22:10:49.540Z,9.3
2019-01-28T22:12:49.570Z,8.8
2019-01-28T22:14:49.553Z,8.8
2019-01-28T22:16:49.634Z,8.8
2019-01-28T22:18:49.694Z,8.7
2019-01-28T22:20:49.736Z,8.9
2019-01-28T22:22:49.737Z,7.8
2019-01-28T22:24:49.694Z,7.8
2019-01-28T22:26:49.912Z,9.1
2019-01-28T22:28:49.854Z,9.1
2019-01-28T22:30:49.877Z,9.3
2019-01-28T22:32:49.871Z,9.1
2019-01-28T22:34:50.277Z,9.1
2019-01-28T22:36:50.395Z,8.7
2019-01-28T22:38:50.326Z,10.0
2019-01-28T22:40:50.353Z,10.2
2019-01-28T22:42:50.355Z,8.9
2019-01-28T22:44:49.493Z,10.3
2019-01-28T22:46:49.647Z,10.3
2019-01-28T22:48:49.742Z,9.6
2019-01-28T22:50:49.764Z,10.4
2019-01-28T22:52:49.729Z,7.8
2019-01-28T22:54:49.708Z,7.8
2019-01-28T22:56:49.909Z,8.6
2019-01-28T22:58:49.939Z,9.8
2019-01-28T23:00:49.910Z,7.8
2019-01-28T23:02:49.756Z,7.7
2019-01-28T23:04:49.957Z,7.7
2019-01-28T23:06:50.143Z,6.6
2019-01-28T23:08:50.237Z,8.1
2019-01-28T23:10:50.216Z,6.8
2019-01-28T23:12:50.279Z,6.3
2019-01-28T23:14:50.215Z,6.2
2019-01-28T23:16:49.579Z,6.2
2019-01-28T23:18:49.565Z,7.2
2019-01-28T23:20:49.674Z,6.6
2019-01-28T23:22:49.774Z,6.4
2019-01-28T23:24:49.833Z,6.6
2019-01-28T23:26:50.192Z,6.6
2019-01-28T23:28:50.170Z,9.8
2019-01-28T23:30:50.238Z,9.8
2019-01-28T23:32:50.215Z,5.8
2019-01-28T23:34:49.678Z,5.8
2019-01-28T23:36:49.872Z,8.9
2019-01-28T23:38:49.893Z,6.9
2019-01-28T23:40:49.926Z,8.7
2019-01-28T23:42:49.906Z,8.9
2019-01-28T23:44:49.915Z,8.9
2019-01-28T23:46:50.227Z,6.8
2019-01-28T23:48:50.262Z,7.7
2019-01-28T23:50:50.351Z,7.7
2019-01-28T23:52:50.352Z,10.5
2019-01-28T23:54:50.334Z,10.5
2019-01-28T23:56:49.553Z,8.7
2019-01-28T23:58:49.635Z,9.1
